Terminal Aerodrome Forecast
Issued by NWS

Home | Current Version | Previous Version | Text Only | Print | Product List | Glossary Off
Versions: 1 2 3 4 5 6 7 8 9 10 11 12 13 14 15 16 17

684
FTUS43 KMPX 231722
TAFRNH
TAF
KRNH 231722Z 2318/2418 04007KT P6SM VCSH SCT020 BKN040 OVC080
     FM240200 03007KT P6SM BKN050
     FM240600 03007KT P6SM BKN030
     FM240800 03007KT P6SM BKN015
     FM241200 02006KT P6SM BKN020=

USA.gov is the U.S. government's official web portal to all federal, state and local government web resources and services.